Time;durP1;ratioP1;P1;durP2;ratioP2;P2;SDS_P1;SDS_P2;PMS_P1;PMS_P2;Temp;Humidity;BMP_temperature;BMP_pressure;BME280_temperature;BME280_humidity;BME280_pressure;Samples;Min_cycle;Max_cycle;Signal;HPM_P1;HPM_P2
2023/08/05 00:01:29;;;;;;;6.32;1.75;;;23.30;81.20;;;;;;7410184;19;19962;-78
2023/08/05 00:03:55;;;;;;;9.63;2.03;;;23.40;81.10;;;;;;7413030;19;19922;-78
2023/08/05 00:06:21;;;;;;;6.93;1.20;;;23.40;80.90;;;;;;7389579;19;19943;-79
2023/08/05 00:08:47;;;;;;;5.63;1.30;;;23.40;80.70;;;;;;7413029;19;19935;-78
2023/08/05 00:11:13;;;;;;;5.70;1.60;;;23.40;80.20;;;;;;7408794;19;20005;-78
2023/08/05 00:13:38;;;;;;;5.30;1.83;;;23.30;80.60;;;;;;7412913;19;19922;-78
2023/08/05 00:16:08;;;;;;;7.35;1.30;;;23.30;79.60;;;;;;7411018;19;19935;-79
2023/08/05 00:18:34;;;;;;;5.95;1.15;;;23.40;79.30;;;;;;7415034;19;19911;-78
2023/08/05 00:21:00;;;;;;;6.65;1.40;;;23.40;78.90;;;;;;7411874;19;19986;-77
2023/08/05 00:23:27;;;;;;;5.32;1.45;;;23.40;78.90;;;;;;7410136;19;19936;-78
2023/08/05 00:25:53;;;;;;;6.35;1.45;;;23.40;78.90;;;;;;7412924;19;19924;-78
2023/08/05 00:28:19;;;;;;;7.68;1.35;;;23.40;78.60;;;;;;7412482;19;19926;-79
2023/08/05 00:30:44;;;;;;;5.68;1.38;;;23.40;78.90;;;;;;7411455;19;19918;-78
2023/08/05 00:33:10;;;;;;;7.68;1.40;;;23.30;78.70;;;;;;7412524;19;19914;-78
2023/08/05 00:35:36;;;;;;;8.20;1.20;;;23.30;78.90;;;;;;7409164;19;19926;-78
2023/08/05 00:38:02;;;;;;;7.68;1.48;;;23.30;79.40;;;;;;7413129;19;19954;-78
2023/08/05 00:40:28;;;;;;;7.22;1.60;;;23.20;80.20;;;;;;7409912;19;19940;-78
2023/08/05 00:42:53;;;;;;;5.32;1.30;;;23.20;80.70;;;;;;7410604;19;20623;-78
2023/08/05 00:45:20;;;;;;;7.68;1.30;;;23.10;80.90;;;;;;7409262;19;19918;-79
2023/08/05 00:47:46;;;;;;;5.28;1.35;;;23.10;81.50;;;;;;7410350;19;19918;-78
2023/08/05 00:50:13;;;;;;;8.13;1.40;;;23.20;81.60;;;;;;7413668;19;19919;-78
2023/08/05 00:52:41;;;;;;;9.18;1.50;;;23.10;81.60;;;;;;7408311;19;19927;-78
2023/08/05 00:55:07;;;;;;;5.93;1.65;;;23.00;82.00;;;;;;7408202;19;19935;-78
2023/08/05 00:57:34;;;;;;;5.55;1.60;;;23.00;82.30;;;;;;7409750;19;19919;-78
2023/08/05 01:00:01;;;;;;;6.57;1.40;;;23.00;82.20;;;;;;7415974;19;19915;-78
2023/08/05 01:02:26;;;;;;;7.18;1.30;;;23.00;82.60;;;;;;7412937;19;19914;-79
2023/08/05 01:04:53;;;;;;;5.75;1.58;;;23.00;82.90;;;;;;7415646;19;19983;-78
2023/08/05 01:07:21;;;;;;;8.45;1.95;;;22.90;83.60;;;;;;7412693;19;19919;-79
2023/08/05 01:09:49;;;;;;;5.93;1.40;;;22.90;83.90;;;;;;7414168;19;19915;-78
2023/08/05 01:12:14;;;;;;;7.78;1.45;;;22.90;84.00;;;;;;7411224;19;19911;-79
2023/08/05 01:14:40;;;;;;;6.97;1.65;;;22.90;84.20;;;;;;7417750;19;19925;-78
2023/08/05 01:17:07;;;;;;;7.75;1.60;;;22.90;84.30;;;;;;7414792;19;19927;-79
2023/08/05 01:19:33;;;;;;;;;;;22.80;84.50;;;;;;7414315;19;19925;-79
2023/08/05 01:22:14;;;;;;;8.60;1.33;;;22.80;84.80;;;;;;7412490;19;20334;-79
2023/08/05 01:24:49;;;;;;;5.95;1.40;;;22.80;85.00;;;;;;7412172;19;19914;-79
2023/08/05 01:27:16;;;;;;;5.40;1.15;;;22.60;85.40;;;;;;7410383;19;19919;-78
2023/08/05 01:29:44;;;;;;;5.55;1.33;;;22.60;85.90;;;;;;7413291;19;20565;-79
2023/08/05 01:32:12;;;;;;;6.07;1.70;;;22.50;86.50;;;;;;7411464;19;19926;-79
2023/08/05 01:34:39;;;;;;;2.85;0.95;;;22.40;86.80;;;;;;7416643;19;20040;-78
2023/08/05 01:37:05;;;;;;;6.22;1.20;;;22.40;87.30;;;;;;7390089;19;19918;-79
2023/08/05 01:39:31;;;;;;;9.10;1.42;;;22.30;87.80;;;;;;7411237;19;19919;-79
2023/08/05 01:41:57;;;;;;;6.20;1.27;;;22.20;88.00;;;;;;7412857;19;19968;-78
2023/08/05 01:44:23;;;;;;;6.70;1.90;;;22.20;88.40;;;;;;7413560;19;19930;-78
2023/08/05 01:46:49;;;;;;;6.25;1.30;;;22.20;88.40;;;;;;7413461;19;19923;-79
2023/08/05 01:49:14;;;;;;;9.52;1.95;;;22.20;88.20;;;;;;7414189;19;19922;-78
2023/08/05 01:51:40;;;;;;;7.18;1.58;;;22.10;88.00;;;;;;7416330;19;19923;-78
2023/08/05 01:54:06;;;;;;;6.15;1.42;;;22.10;87.60;;;;;;7411755;19;19915;-78
2023/08/05 01:56:32;;;;;;;7.65;1.70;;;22.10;87.40;;;;;;7407266;19;19935;-78
2023/08/05 01:58:58;;;;;;;9.63;1.48;;;22.00;87.10;;;;;;7410565;19;19910;-78
2023/08/05 02:01:42;;;;;;;7.63;1.65;;;22.00;84.90;;;;;;7412207;19;19936;-79
2023/08/05 02:04:08;;;;;;;6.40;1.40;;;22.00;81.70;;;;;;7414163;19;19915;-78
2023/08/05 02:06:34;;;;;;;4.25;1.17;;;22.00;78.30;;;;;;7418510;19;19918;-79
2023/08/05 02:08:59;;;;;;;5.40;1.63;;;21.90;75.50;;;;;;7413399;19;19952;-80
2023/08/05 02:11:25;;;;;;;5.97;1.30;;;21.90;69.80;;;;;;7412587;19;19919;-78
2023/08/05 02:13:51;;;;;;;5.20;1.27;;;21.90;62.90;;;;;;7413801;19;20266;-78
2023/08/05 02:16:17;;;;;;;4.18;1.10;;;21.90;60.80;;;;;;7410750;19;19918;-78
2023/08/05 02:18:43;;;;;;;3.97;1.63;;;21.90;60.40;;;;;;7409927;19;20149;-78
2023/08/05 02:21:08;;;;;;;5.18;1.05;;;21.90;60.70;;;;;;7405472;19;19919;-78
2023/08/05 02:23:34;;;;;;;4.72;1.30;;;21.90;59.70;;;;;;7414957;19;20363;-79
2023/08/05 02:26:02;;;;;;;4.53;1.30;;;21.90;59.20;;;;;;7411597;19;19910;-79
2023/08/05 02:28:29;;;;;;;4.18;1.13;;;21.90;59.20;;;;;;7414798;19;19915;-79
2023/08/05 02:30:54;;;;;;;4.38;1.42;;;22.00;60.20;;;;;;7415755;19;19957;-78
2023/08/05 02:33:20;;;;;;;5.45;1.23;;;22.00;59.90;;;;;;7405779;19;19911;-77
2023/08/05 02:35:47;;;;;;;5.93;1.27;;;22.10;59.70;;;;;;7405215;19;19926;-78
2023/08/05 02:38:14;;;;;;;2.55;0.95;;;22.20;59.50;;;;;;7405321;19;19925;-78
2023/08/05 02:40:40;;;;;;;5.20;1.05;;;22.20;59.40;;;;;;7408530;19;19931;-79
2023/08/05 02:43:06;;;;;;;4.78;1.40;;;22.20;59.00;;;;;;7409400;19;19919;-79
2023/08/05 02:45:32;;;;;;;6.10;1.30;;;22.30;58.70;;;;;;7407614;19;20273;-78
2023/08/05 02:47:58;;;;;;;5.70;1.00;;;22.30;57.70;;;;;;7407488;19;20626;-79
2023/08/05 02:50:24;;;;;;;3.53;1.13;;;22.40;56.90;;;;;;7406369;19;19951;-78
2023/08/05 02:52:50;;;;;;;6.43;1.50;;;22.40;56.60;;;;;;7408966;19;19948;-79
2023/08/05 02:55:16;;;;;;;5.53;1.50;;;22.40;56.30;;;;;;7409852;19;19911;-78
2023/08/05 02:57:41;;;;;;;5.85;1.50;;;22.50;55.90;;;;;;7412747;19;19914;-78
2023/08/05 03:00:09;;;;;;;4.32;1.00;;;22.50;54.60;;;;;;7406195;19;19911;-78
2023/08/05 03:02:35;;;;;;;4.25;1.00;;;22.50;53.70;;;;;;7411487;19;19938;-78
2023/08/05 03:05:01;;;;;;;3.75;1.00;;;22.50;51.50;;;;;;7414631;19;19918;-78
2023/08/05 03:07:27;;;;;;;4.38;1.40;;;22.40;52.20;;;;;;7409649;19;19923;-78
2023/08/05 03:09:53;;;;;;;4.22;1.00;;;22.40;51.50;;;;;;7405283;19;19926;-78
2023/08/05 03:12:19;;;;;;;4.90;1.33;;;22.40;50.90;;;;;;7406228;19;19910;-79
2023/08/05 03:14:45;;;;;;;3.35;1.10;;;22.40;50.20;;;;;;7413158;19;19918;-78
2023/08/05 03:17:10;;;;;;;3.97;1.33;;;22.40;50.00;;;;;;7408549;19;19933;-78
2023/08/05 03:19:36;;;;;;;5.65;1.20;;;22.30;48.30;;;;;;7409700;19;19959;-78
2023/08/05 03:22:03;;;;;;;5.00;1.23;;;22.20;47.90;;;;;;7417039;19;19942;-78
2023/08/05 03:24:28;;;;;;;4.38;1.10;;;22.10;47.80;;;;;;7414503;19;19930;-78
2023/08/05 03:26:54;;;;;;;3.65;1.15;;;22.10;48.70;;;;;;7416785;19;19911;-77
2023/08/05 03:29:20;;;;;;;4.95;1.45;;;22.00;50.00;;;;;;7418846;19;19911;-79
2023/08/05 03:31:46;;;;;;;3.20;1.00;;;21.90;50.30;;;;;;7414108;19;19918;-77
2023/08/05 03:34:12;;;;;;;5.88;1.17;;;21.90;50.30;;;;;;7411253;19;19974;-78
2023/08/05 03:36:37;;;;;;;3.15;1.23;;;21.80;50.20;;;;;;7413582;19;19926;-78
2023/08/05 03:39:03;;;;;;;5.50;1.42;;;21.80;50.10;;;;;;7402671;19;19953;-78
2023/08/05 03:41:29;;;;;;;2.65;0.73;;;21.80;49.20;;;;;;7416049;19;20008;-78
2023/08/05 03:43:55;;;;;;;4.20;1.02;;;21.70;48.40;;;;;;7417549;19;19997;-78
2023/08/05 03:46:21;;;;;;;3.10;1.00;;;21.70;48.00;;;;;;7410810;19;20335;-78
2023/08/05 03:48:48;;;;;;;3.30;1.15;;;21.60;47.50;;;;;;7415000;19;19934;-79
2023/08/05 03:51:15;;;;;;;3.95;1.23;;;21.60;48.00;;;;;;7415325;19;20555;-78
2023/08/05 03:53:41;;;;;;;4.65;1.23;;;21.70;46.90;;;;;;7410771;19;19918;-78
2023/08/05 03:56:07;;;;;;;2.63;0.80;;;21.70;46.50;;;;;;7413112;19;19915;-78
2023/08/05 03:58:32;;;;;;;3.70;1.00;;;21.70;47.40;;;;;;7411168;19;20328;-78
2023/08/05 04:01:00;;;;;;;4.28;0.95;;;21.60;50.50;;;;;;7412570;19;19911;-78
2023/08/05 04:03:26;;;;;;;4.47;1.10;;;21.50;51.60;;;;;;7409259;19;19915;-78
2023/08/05 04:05:52;;;;;;;4.70;1.27;;;21.50;51.60;;;;;;7413403;19;19938;-78
2023/08/05 04:08:18;;;;;;;4.45;1.20;;;21.30;51.10;;;;;;7413056;19;19922;-78
2023/08/05 04:10:44;;;;;;;4.22;1.00;;;21.20;51.00;;;;;;7417975;19;19918;-79
2023/08/05 04:13:11;;;;;;;4.72;1.02;;;21.10;51.10;;;;;;7410256;19;20327;-78
2023/08/05 04:15:38;;;;;;;4.78;1.05;;;20.90;50.70;;;;;;7415845;19;19918;-78
2023/08/05 04:18:07;;;;;;;4.55;1.25;;;20.80;52.40;;;;;;7412412;19;20348;-79
2023/08/05 04:20:35;;;;;;;4.20;0.93;;;20.70;53.50;;;;;;7416639;19;19918;-79
2023/08/05 04:23:01;;;;;;;4.43;1.13;;;20.60;54.30;;;;;;7416278;19;19919;-79
2023/08/05 04:25:29;;;;;;;3.47;1.00;;;20.60;54.90;;;;;;7410922;19;19914;-78
2023/08/05 04:27:56;;;;;;;3.60;0.90;;;20.60;55.70;;;;;;7412853;19;19927;-79
2023/08/05 04:30:22;;;;;;;3.33;1.00;;;20.60;55.60;;;;;;7411915;19;19931;-80
2023/08/05 04:32:49;;;;;;;4.30;1.45;;;20.50;54.60;;;;;;7415449;19;19918;-78
2023/08/05 04:35:15;;;;;;;2.97;0.82;;;20.50;53.20;;;;;;7410027;19;19935;-79
2023/08/05 04:37:41;;;;;;;4.28;1.10;;;20.50;52.80;;;;;;7413896;19;19915;-79
2023/08/05 04:40:09;;;;;;;3.92;1.00;;;20.60;50.40;;;;;;7412139;19;19915;-78
2023/08/05 04:42:35;;;;;;;3.38;1.52;;;20.50;49.70;;;;;;7413694;19;19911;-77
2023/08/05 04:45:01;;;;;;;3.40;1.00;;;20.50;49.40;;;;;;7417058;19;19929;-78
2023/08/05 04:47:27;;;;;;;5.05;1.00;;;20.60;49.10;;;;;;7415011;19;19942;-79
2023/08/05 04:49:53;;;;;;;2.53;0.85;;;20.60;49.60;;;;;;7420350;19;19910;-78
2023/08/05 04:52:18;;;;;;;4.57;1.45;;;20.40;49.40;;;;;;7412143;19;19918;-79
2023/08/05 04:54:44;;;;;;;2.63;1.00;;;20.30;49.30;;;;;;7416043;19;19928;-78
2023/08/05 04:57:15;;;;;;;2.72;0.80;;;20.30;48.70;;;;;;7416841;19;19914;-79
2023/08/05 04:59:41;;;;;;;3.03;0.93;;;20.30;48.90;;;;;;7418316;19;20550;-78
2023/08/05 05:02:07;;;;;;;4.72;1.10;;;20.30;48.10;;;;;;7416938;19;19922;-80
2023/08/05 05:04:33;;;;;;;3.08;1.00;;;20.30;47.70;;;;;;7419075;19;19919;-78
2023/08/05 05:06:59;;;;;;;3.88;0.90;;;20.20;47.60;;;;;;7414698;19;19951;-79
2023/08/05 05:09:25;;;;;;;2.95;0.80;;;20.20;47.90;;;;;;7416898;19;19914;-78
2023/08/05 05:11:53;;;;;;;3.63;1.00;;;20.10;49.70;;;;;;7416832;19;19918;-79
2023/08/05 05:14:20;;;;;;;2.80;0.88;;;20.00;50.20;;;;;;7415361;19;19938;-79
2023/08/05 05:16:45;;;;;;;;;;;20.00;50.10;;;;;;7419996;19;20279;-79
2023/08/05 05:19:11;;;;;;;2.63;0.85;;;20.00;50.30;;;;;;7414258;19;19922;-80
2023/08/05 05:21:37;;;;;;;3.92;0.98;;;20.10;49.70;;;;;;7419986;19;19952;-78
2023/08/05 05:24:04;;;;;;;2.92;1.00;;;20.10;49.20;;;;;;7415849;19;19930;-78
2023/08/05 05:26:30;;;;;;;2.63;0.75;;;20.10;50.00;;;;;;7413617;19;19944;-78
2023/08/05 05:28:56;;;;;;;3.13;0.90;;;20.10;48.90;;;;;;7414795;19;19919;-78
2023/08/05 05:31:22;;;;;;;2.85;0.70;;;20.20;48.40;;;;;;7413616;19;19937;-79
2023/08/05 05:33:48;;;;;;;3.72;0.77;;;20.40;47.70;;;;;;7413003;19;19931;-78
2023/08/05 05:36:14;;;;;;;3.08;0.80;;;20.40;47.50;;;;;;7415572;19;19918;-79
2023/08/05 05:38:40;;;;;;;4.45;1.00;;;20.40;47.00;;;;;;7414543;19;19925;-79
2023/08/05 05:41:06;;;;;;;3.42;1.20;;;20.40;48.00;;;;;;7414410;19;19926;-78
2023/08/05 05:43:33;;;;;;;4.07;0.80;;;20.40;47.90;;;;;;7407336;19;20262;-78
2023/08/05 05:45:59;;;;;;;3.20;0.85;;;20.30;47.80;;;;;;7413971;19;19926;-78
2023/08/05 05:48:24;;;;;;;4.95;1.33;;;20.30;47.60;;;;;;7412136;19;19951;-78
2023/08/05 05:50:54;;;;;;;2.88;0.95;;;20.30;48.00;;;;;;7413171;19;19923;-79
2023/08/05 05:53:21;;;;;;;3.28;1.00;;;20.40;48.00;;;;;;7412094;19;19923;-78
2023/08/05 05:55:52;;;;;;;3.15;0.80;;;20.30;47.80;;;;;;7412603;19;19915;-78
2023/08/05 05:58:20;;;;;;;5.35;1.10;;;20.30;48.50;;;;;;7416406;19;19911;-79
2023/08/05 06:00:45;;;;;;;2.90;0.90;;;20.30;48.30;;;;;;7421445;19;20267;-78
2023/08/05 06:03:11;;;;;;;4.60;1.27;;;20.40;48.30;;;;;;7410605;19;19919;-78
2023/08/05 06:05:37;;;;;;;3.42;0.82;;;20.50;48.20;;;;;;7413562;19;19967;-79
2023/08/05 06:08:03;;;;;;;3.70;0.90;;;20.60;48.70;;;;;;7414648;19;19922;-79
2023/08/05 06:10:29;;;;;;;3.28;0.85;;;20.60;48.30;;;;;;7419129;19;19911;-78
2023/08/05 06:12:56;;;;;;;3.78;1.00;;;20.70;48.80;;;;;;7415325;19;19910;-79
2023/08/05 06:15:22;;;;;;;3.80;1.25;;;20.70;48.30;;;;;;7410579;19;19931;-78
2023/08/05 06:17:49;;;;;;;5.35;1.27;;;20.70;48.10;;;;;;7411080;19;20272;-78
2023/08/05 06:20:15;;;;;;;5.25;0.93;;;20.70;48.80;;;;;;7411631;19;19946;-79
2023/08/05 06:22:41;;;;;;;3.47;0.80;;;20.80;50.30;;;;;;7410687;19;19923;-78
2023/08/05 06:25:07;;;;;;;3.67;1.00;;;20.70;50.00;;;;;;7414496;19;19914;-79
2023/08/05 06:27:33;;;;;;;4.70;1.33;;;20.80;49.70;;;;;;7414678;19;19923;-79
2023/08/05 06:29:59;;;;;;;3.53;0.90;;;20.80;50.00;;;;;;7412757;19;19929;-78
2023/08/05 06:32:24;;;;;;;3.92;1.00;;;20.80;49.60;;;;;;7408677;19;19925;-79
2023/08/05 06:34:50;;;;;;;3.15;0.80;;;20.80;49.90;;;;;;7412955;19;19918;-78
2023/08/05 06:37:16;;;;;;;6.00;0.93;;;20.70;49.90;;;;;;7407662;19;19923;-77
2023/08/05 06:39:42;;;;;;;3.17;0.85;;;20.60;50.20;;;;;;7408112;19;19915;-78
2023/08/05 06:42:08;;;;;;;4.43;0.90;;;20.60;50.00;;;;;;7408661;19;19918;-78
2023/08/05 06:44:37;;;;;;;3.13;1.02;;;20.60;49.60;;;;;;7408240;19;19918;-78
2023/08/05 06:47:03;;;;;;;2.28;0.68;;;20.50;50.20;;;;;;7407340;19;19924;-77
2023/08/05 06:49:29;;;;;;;4.53;1.08;;;20.60;50.00;;;;;;7406441;19;19928;-78
2023/08/05 06:51:55;;;;;;;4.85;0.90;;;20.60;50.00;;;;;;7405551;19;19922;-79
2023/08/05 06:54:22;;;;;;;5.85;1.00;;;20.60;50.40;;;;;;7408384;19;19922;-78
2023/08/05 06:56:50;;;;;;;4.00;0.90;;;20.70;50.20;;;;;;7411344;19;19931;-79
2023/08/05 06:59:16;;;;;;;3.15;1.00;;;20.80;49.40;;;;;;7403009;19;19915;-78
2023/08/05 07:01:41;;;;;;;3.35;0.70;;;20.90;49.40;;;;;;7410221;19;19918;-79
2023/08/05 07:04:09;;;;;;;3.90;0.90;;;20.90;48.80;;;;;;7409406;19;20022;-78
2023/08/05 07:06:35;;;;;;;3.92;0.90;;;20.90;49.00;;;;;;7411776;19;19911;-80
2023/08/05 07:09:03;;;;;;;2.80;0.82;;;21.00;48.60;;;;;;7413959;19;19986;-79
2023/08/05 07:11:29;;;;;;;2.63;0.77;;;21.20;48.00;;;;;;7409804;19;19903;-79
2023/08/05 07:13:55;;;;;;;4.35;0.90;;;21.30;47.10;;;;;;7410819;19;19910;-77
2023/08/05 07:16:21;;;;;;;5.22;0.93;;;21.30;47.40;;;;;;7410734;19;19927;-78
2023/08/05 07:18:47;;;;;;;3.72;0.80;;;21.40;46.20;;;;;;7412181;19;19914;-79
2023/08/05 07:21:15;;;;;;;3.15;1.05;;;21.70;45.60;;;;;;7407204;19;19918;-78
2023/08/05 07:23:40;;;;;;;5.75;1.30;;;21.80;45.30;;;;;;7407077;19;20023;-79
2023/08/05 07:26:06;;;;;;;3.05;0.80;;;22.00;45.20;;;;;;7406328;19;19929;-78
2023/08/05 07:28:32;;;;;;;3.65;1.00;;;22.00;45.60;;;;;;7409528;19;19939;-79
2023/08/05 07:31:03;;;;;;;4.68;1.10;;;22.10;44.50;;;;;;7406922;19;20506;-78
2023/08/05 07:33:30;;;;;;;2.67;1.05;;;22.10;44.20;;;;;;7406710;19;20347;-78
2023/08/05 07:35:56;;;;;;;3.53;1.20;;;22.20;43.70;;;;;;7409655;19;19942;-78
2023/08/05 07:38:25;;;;;;;;;;;22.20;44.10;;;;;;7408945;19;19935;-77
2023/08/05 07:40:55;;;;;;;2.80;0.70;;;22.30;43.60;;;;;;7407207;19;19923;-77
2023/08/05 07:43:24;;;;;;;2.80;0.88;;;22.40;43.30;;;;;;7406017;19;20371;-78
2023/08/05 07:45:50;;;;;;;4.18;1.00;;;22.50;43.20;;;;;;7406272;19;20495;-78
2023/08/05 07:48:16;;;;;;;5.10;1.60;;;22.60;42.90;;;;;;7402777;19;19915;-78
2023/08/05 07:50:42;;;;;;;3.85;1.05;;;22.70;42.20;;;;;;7406873;19;20259;-80
2023/08/05 07:53:09;;;;;;;4.60;0.88;;;22.70;42.40;;;;;;7404542;19;19914;-77
2023/08/05 07:55:37;;;;;;;3.33;1.13;;;22.70;43.20;;;;;;7407175;19;19919;-78
2023/08/05 07:58:04;;;;;;;3.75;1.00;;;22.80;43.10;;;;;;7405628;19;20370;-78
2023/08/05 08:00:31;;;;;;;3.67;0.93;;;22.90;42.60;;;;;;7406126;19;20002;-79
2023/08/05 08:02:57;;;;;;;3.83;1.33;;;23.00;43.50;;;;;;7407816;19;19919;-78
2023/08/05 08:05:24;;;;;;;3.80;0.80;;;23.00;42.30;;;;;;7406388;19;19925;-78
2023/08/05 08:07:50;;;;;;;3.83;1.00;;;23.20;41.80;;;;;;7379656;19;19919;-78
2023/08/05 08:10:16;;;;;;;3.05;0.93;;;23.20;41.50;;;;;;7356005;19;19939;-78
2023/08/05 08:12:43;;;;;;;5.43;1.45;;;23.30;40.30;;;;;;7411824;19;19919;-79
2023/08/05 08:15:09;;;;;;;;;;;23.40;39.70;;;;;;7411904;19;19930;-78
2023/08/05 08:17:35;;;;;;;2.90;0.90;;;23.40;39.80;;;;;;7409868;19;19918;-78
2023/08/05 08:20:01;;;;;;;7.60;0.93;;;23.50;38.60;;;;;;7413959;19;19915;-79
2023/08/05 08:22:27;;;;;;;3.67;0.90;;;23.70;38.70;;;;;;7410110;19;19915;-78
2023/08/05 08:24:53;;;;;;;2.70;0.80;;;23.70;38.10;;;;;;7413737;19;19918;-78
2023/08/05 08:27:19;;;;;;;3.88;1.00;;;23.80;39.70;;;;;;7409773;19;19922;-78
2023/08/05 08:29:44;;;;;;;3.90;1.20;;;23.70;40.50;;;;;;7409996;19;19919;-78
2023/08/05 08:32:10;;;;;;;7.63;1.50;;;23.70;41.40;;;;;;7412171;19;19986;-78
2023/08/05 08:34:36;;;;;;;5.13;1.20;;;23.80;40.90;;;;;;7411906;19;19918;-79
2023/08/05 08:37:02;;;;;;;2.70;1.10;;;23.90;41.00;;;;;;7413132;19;19918;-78
2023/08/05 08:39:27;;;;;;;4.57;1.10;;;24.20;39.70;;;;;;7409890;19;19915;-78
2023/08/05 08:41:54;;;;;;;5.38;1.35;;;24.30;39.00;;;;;;7408342;19;20306;-78
2023/08/05 08:44:21;;;;;;;4.63;1.00;;;24.60;38.20;;;;;;7412120;19;19918;-78
2023/08/05 08:46:48;;;;;;;4.80;1.20;;;25.40;37.10;;;;;;7413609;19;19922;-78
2023/08/05 08:49:16;;;;;;;4.03;1.40;;;25.80;36.00;;;;;;7410275;19;19921;-78
2023/08/05 08:51:49;;;;;;;4.78;1.45;;;26.00;34.50;;;;;;7409771;19;19926;-78
2023/08/05 08:54:17;;;;;;;4.93;1.38;;;27.20;33.30;;;;;;7412461;19;19918;-79
2023/08/05 08:56:43;;;;;;;3.08;1.27;;;27.50;33.20;;;;;;7410537;19;19948;-78
2023/08/05 08:59:09;;;;;;;4.28;1.60;;;27.90;32.20;;;;;;7412432;19;19915;-79
2023/08/05 09:01:39;;;;;;;3.75;1.73;;;28.30;30.30;;;;;;7409672;19;19922;-78
2023/08/05 09:04:07;;;;;;;3.25;1.83;;;28.70;30.00;;;;;;7409290;19;19919;-78
2023/08/05 09:06:34;;;;;;;3.47;1.52;;;28.80;29.10;;;;;;7411652;19;20441;-78
2023/08/05 09:09:00;;;;;;;3.55;1.85;;;29.20;29.30;;;;;;7408638;19;19926;-78
2023/08/05 09:11:26;;;;;;;;;;;29.90;28.80;;;;;;7407174;19;19943;-77
2023/08/05 09:13:53;;;;;;;4.97;1.92;;;30.30;27.40;;;;;;7408259;19;19919;-78
2023/08/05 09:16:19;;;;;;;3.80;1.77;;;30.70;26.30;;;;;;7408848;19;19946;-78
2023/08/05 09:18:51;;;;;;;;;;;30.80;25.90;;;;;;7409243;19;20363;-77
2023/08/05 09:21:27;;;;;;;6.03;1.75;;;30.70;25.90;;;;;;7410567;19;19931;-78
2023/08/05 09:23:55;;;;;;;2.92;1.33;;;31.10;25.00;;;;;;7410727;19;19919;-78
2023/08/05 09:26:32;;;;;;;4.20;1.52;;;30.00;23.60;;;;;;7408152;19;19947;-78
2023/08/05 09:28:59;;;;;;;5.18;1.75;;;30.20;23.90;;;;;;7408516;19;19922;-78
2023/08/05 09:31:25;;;;;;;5.00;1.63;;;29.70;23.90;;;;;;7409691;19;19942;-79
2023/08/05 09:33:52;;;;;;;3.83;1.55;;;29.30;23.50;;;;;;7410311;19;19974;-78
2023/08/05 09:36:27;;;;;;;3.35;1.80;;;28.90;21.70;;;;;;7405361;19;19930;-77
2023/08/05 09:39:06;;;;;;;3.33;2.45;;;29.80;20.70;;;;;;7412646;19;20265;-78
2023/08/05 09:41:34;;;;;;;3.17;1.55;;;31.00;19.30;;;;;;7408725;19;19957;-78
2023/08/05 09:44:00;;;;;;;4.50;1.83;;;31.40;18.80;;;;;;7406868;19;19927;-78
2023/08/05 09:46:46;;;;;;;3.00;1.42;;;31.60;18.70;;;;;;7410426;19;19982;-79
2023/08/05 09:49:17;;;;;;;4.60;2.28;;;31.70;18.40;;;;;;7408633;19;19999;-78
2023/08/05 09:51:45;;;;;;;3.45;1.60;;;32.00;19.20;;;;;;7409554;19;19917;-78
2023/08/05 09:54:17;;;;;;;4.50;2.05;;;33.60;18.80;;;;;;7408274;19;19914;-78
2023/08/05 09:56:44;;;;;;;3.97;1.83;;;32.70;16.30;;;;;;7405223;19;19970;-78
2023/08/05 09:59:12;;;;;;;4.82;2.25;;;32.90;16.80;;;;;;7409506;19;19911;-78
2023/08/05 10:01:40;;;;;;;3.35;1.88;;;32.30;17.00;;;;;;7407818;19;19914;-78
2023/08/05 10:04:08;;;;;;;4.07;1.90;;;32.60;17.40;;;;;;7406185;19;19931;-78
2023/08/05 10:06:41;;;;;;;3.60;1.85;;;32.70;18.00;;;;;;7407018;19;20296;-77
2023/08/05 10:09:07;;;;;;;4.20;2.63;;;32.70;18.30;;;;;;7407428;19;19911;-78
2023/08/05 10:11:37;;;;;;;3.28;2.15;;;33.10;17.80;;;;;;7412568;19;19943;-78
2023/08/05 10:14:04;;;;;;;4.78;2.17;;;31.70;17.80;;;;;;7406402;19;19911;-78
2023/08/05 10:16:30;;;;;;;3.42;1.63;;;32.30;17.80;;;;;;7410775;19;19938;-78
2023/08/05 10:18:56;;;;;;;3.60;2.03;;;33.10;17.80;;;;;;7406207;19;19923;-79
2023/08/05 10:21:36;;;;;;;5.00;2.22;;;32.30;17.80;;;;;;7406402;19;20667;-78
2023/08/05 10:24:01;;;;;;;4.35;1.83;;;32.20;18.60;;;;;;7408289;19;19946;-79
2023/08/05 10:26:45;;;;;;;4.13;1.70;;;32.20;18.50;;;;;;7408940;19;19948;-78
2023/08/05 10:29:30;;;;;;;5.43;1.63;;;32.10;18.20;;;;;;7406275;19;19911;-77
2023/08/05 10:32:14;;;;;;;5.63;2.33;;;32.50;18.30;;;;;;7407400;19;19915;-79
2023/08/05 10:34:40;;;;;;;5.10;1.95;;;32.90;18.40;;;;;;7407396;19;19907;-78
2023/08/05 10:37:06;;;;;;;5.97;2.30;;;32.50;18.00;;;;;;7404357;19;20341;-78
2023/08/05 10:39:44;;;;;;;4.78;1.85;;;32.20;17.80;;;;;;7407386;19;19942;-78
2023/08/05 10:42:19;;;;;;;4.50;1.90;;;32.30;17.90;;;;;;7405599;19;19918;-78
2023/08/05 10:44:48;;;;;;;4.28;2.25;;;31.50;17.90;;;;;;7409258;19;19942;-78
2023/08/05 10:47:18;;;;;;;4.45;1.85;;;32.30;18.40;;;;;;7407197;19;19922;-79
2023/08/05 10:49:44;;;;;;;5.32;2.42;;;32.80;18.00;;;;;;7410366;19;19917;-78
2023/08/05 10:52:19;;;;;;;4.97;2.55;;;33.10;18.50;;;;;;7406132;19;20318;-77
2023/08/05 10:54:47;;;;;;;4.88;2.03;;;31.50;19.00;;;;;;7411585;19;19914;-78
2023/08/05 10:57:34;;;;;;;4.43;1.98;;;30.40;19.50;;;;;;7404561;19;19922;-78
2023/08/05 11:00:02;;;;;;;4.88;2.33;;;29.60;20.90;;;;;;7406387;19;20458;-78
2023/08/05 11:02:28;;;;;;;4.40;2.05;;;30.60;20.90;;;;;;7407052;19;19923;-79
2023/08/05 11:05:08;;;;;;;3.88;1.52;;;31.20;22.10;;;;;;7409903;19;19927;-79
2023/08/05 11:07:40;;;;;;;6.40;1.90;;;29.80;26.70;;;;;;7408976;19;19922;-78
2023/08/05 11:10:07;;;;;;;5.88;1.95;;;29.00;30.00;;;;;;7381908;19;20039;-79
2023/08/05 11:12:33;;;;;;;8.10;2.95;;;29.10;30.70;;;;;;7404965;19;20522;-78
2023/08/05 11:14:59;;;;;;;;;;;28.60;33.30;;;;;;7406955;19;19914;-77
2023/08/05 11:17:24;;;;;;;9.73;2.08;;;28.40;35.40;;;;;;7403945;19;20348;-78
2023/08/05 11:19:54;;;;;;;;;;;27.80;36.40;;;;;;7408310;19;19990;-76
2023/08/05 11:22:36;;;;;;;4.20;1.83;;;28.80;36.60;;;;;;7381257;19;19922;-78
2023/08/05 11:25:03;;;;;;;4.93;1.80;;;28.80;37.00;;;;;;7404984;19;19926;-78
2023/08/05 11:27:34;;;;;;;5.82;1.90;;;27.50;39.10;;;;;;7408873;19;19918;-77
2023/08/05 11:30:19;;;;;;;5.20;1.85;;;27.80;39.60;;;;;;7355962;19;19915;-77
2023/08/05 11:32:52;;;;;;;4.70;1.63;;;28.70;38.50;;;;;;7402598;19;19934;-78
2023/08/05 11:35:18;;;;;;;7.10;2.25;;;28.40;38.60;;;;;;7408068;19;20596;-78
2023/08/05 11:37:44;;;;;;;4.60;1.70;;;28.10;39.70;;;;;;7405151;19;19915;-78
2023/08/05 11:40:10;;;;;;;8.05;1.90;;;28.10;39.10;;;;;;7402449;19;19989;-77
2023/08/05 11:42:37;;;;;;;7.20;2.80;;;27.90;39.30;;;;;;7411931;19;19918;-78
2023/08/05 11:45:04;;;;;;;5.85;2.03;;;28.30;40.40;;;;;;7412762;19;20331;-78
2023/08/05 11:47:30;;;;;;;4.85;1.83;;;28.50;38.90;;;;;;7412644;19;19921;-79
2023/08/05 11:49:56;;;;;;;7.70;2.72;;;28.60;38.10;;;;;;7419761;19;20458;-79
2023/08/05 11:52:22;;;;;;;6.00;1.80;;;29.10;37.00;;;;;;7416218;19;20061;-78
2023/08/05 11:54:58;;;;;;;5.20;2.08;;;29.50;36.40;;;;;;7412525;19;19922;-78
2023/08/05 11:57:25;;;;;;;5.60;2.10;;;29.10;36.20;;;;;;7409990;19;19914;-78
2023/08/05 11:59:51;;;;;;;6.25;2.03;;;29.30;36.50;;;;;;7412639;19;20389;-78
2023/08/05 12:02:19;;;;;;;5.38;2.30;;;28.50;36.70;;;;;;7412817;19;19910;-79
2023/08/05 12:04:45;;;;;;;5.43;1.73;;;29.00;36.40;;;;;;7419433;19;19918;-78
2023/08/05 12:07:19;;;;;;;7.53;2.15;;;29.40;35.60;;;;;;7416091;19;19914;-78
2023/08/05 12:10:02;;;;;;;7.32;1.83;;;29.90;34.90;;;;;;7418252;19;19958;-78
2023/08/05 12:12:28;;;;;;;4.53;1.77;;;29.40;38.50;;;;;;7415218;19;19922;-80
2023/08/05 12:15:08;;;;;;;4.50;1.70;;;29.90;37.60;;;;;;7421238;19;19930;-79
2023/08/05 12:17:34;;;;;;;5.60;2.22;;;29.70;36.30;;;;;;7415730;19;19915;-79
2023/08/05 12:19:59;;;;;;;3.85;1.58;;;29.60;35.10;;;;;;7418171;19;19919;-79
2023/08/05 12:22:26;;;;;;;;;;;30.00;34.30;;;;;;7417715;19;19926;-79
2023/08/05 12:24:52;;;;;;;5.57;1.92;;;29.70;33.40;;;;;;7418083;19;19915;-78
2023/08/05 12:27:18;;;;;;;4.55;1.83;;;28.90;32.60;;;;;;7415234;19;19925;-79
2023/08/05 12:29:44;;;;;;;;;;;29.60;32.80;;;;;;7420041;19;19938;-79
2023/08/05 12:32:09;;;;;;;4.75;1.65;;;29.50;34.60;;;;;;7419433;19;19918;-79
2023/08/05 12:34:35;;;;;;;;;;;29.20;34.20;;;;;;7424740;19;19919;-79
2023/08/05 12:37:01;;;;;;;5.22;1.98;;;29.80;35.50;;;;;;7419704;19;19935;-79
2023/08/05 12:39:26;;;;;;;;;;;29.60;34.70;;;;;;7418568;19;19914;-79
2023/08/05 12:41:53;;;;;;;6.32;2.17;;;29.70;34.70;;;;;;7420030;19;19943;-79
2023/08/05 12:44:20;;;;;;;4.78;2.13;;;30.10;33.10;;;;;;7414865;19;19935;-79
2023/08/05 12:46:45;;;;;;;;;;;30.60;29.40;;;;;;7422770;19;19922;-80
2023/08/05 12:49:11;;;;;;;4.90;1.73;;;31.00;29.40;;;;;;7419225;19;19918;-79
2023/08/05 12:51:37;;;;;;;;;;;29.00;30.30;;;;;;7421286;19;19931;-79